Time;durP1;ratioP1;P1;durP2;ratioP2;P2;SDS_P1;SDS_P2;PMS_P1;PMS_P2;Temp;Humidity;BMP_temperature;BMP_pressure;BME280_temperature;BME280_humidity;BME280_pressure;Samples;Min_cycle;Max_cycle;Signal;HPM_P1;HPM_P2
2021/11/01 00:00:23;;;;;;;22.90;13.77;;;;;;;9.97;81.83;96660.22;5096609;28;20048;-65
2021/11/01 00:02:49;;;;;;;17.27;12.25;;;;;;;10.00;81.44;96667.94;5096767;28;20427;-64
2021/11/01 00:05:16;;;;;;;18.02;13.05;;;;;;;9.97;81.49;96663.66;5096629;28;20016;-66
2021/11/01 00:07:41;;;;;;;21.20;13.45;;;;;;;10.01;81.47;96666.16;5096670;28;20028;-63
2021/11/01 00:10:08;;;;;;;18.25;12.43;;;;;;;10.04;81.37;96663.47;5096703;28;20432;-63
2021/11/01 00:12:34;;;;;;;22.17;13.88;;;;;;;10.06;81.24;96657.25;5096477;28;20021;-63
2021/11/01 00:15:00;;;;;;;25.88;14.82;;;;;;;10.09;80.99;96658.94;5096660;28;20024;-63
2021/11/01 00:17:27;;;;;;;18.42;13.43;;;;;;;10.11;80.98;96662.34;5096531;28;20371;-64
2021/11/01 00:19:54;;;;;;;17.92;13.88;;;;;;;10.14;80.95;96657.00;5096559;28;20024;-65
2021/11/01 00:22:20;;;;;;;22.70;13.75;;;;;;;10.16;81.03;96657.81;5095065;28;20039;-64
2021/11/01 00:24:47;;;;;;;16.58;13.82;;;;;;;10.19;80.89;96657.72;5095023;28;20420;-65
2021/11/01 00:27:13;;;;;;;21.77;14.57;;;;;;;10.18;80.80;96652.53;5096366;28;20392;-65
2021/11/01 00:29:39;;;;;;;19.83;14.48;;;;;;;10.19;80.77;96647.25;5096218;28;20027;-65
2021/11/01 00:32:06;;;;;;;19.05;14.10;;;;;;;10.21;80.96;96647.19;5096331;28;20438;-64
2021/11/01 00:34:32;;;;;;;18.50;14.38;;;;;;;10.20;81.17;96648.09;5096213;28;20099;-66
2021/11/01 00:36:57;;;;;;;21.23;14.00;;;;;;;10.22;81.21;96647.16;5096036;28;20104;-64
2021/11/01 00:39:23;;;;;;;19.67;13.20;;;;;;;10.21;81.04;96634.13;5096067;28;20103;-64
2021/11/01 00:41:49;;;;;;;20.90;13.15;;;;;;;10.19;80.91;96630.72;5096121;28;20081;-65
2021/11/01 00:44:14;;;;;;;17.90;13.02;;;;;;;10.21;80.73;96634.97;5096033;28;20473;-63
2021/11/01 00:46:40;;;;;;;18.20;13.18;;;;;;;10.21;80.95;96632.34;5095851;28;20034;-65
2021/11/01 00:49:06;;;;;;;19.27;13.23;;;;;;;10.22;80.99;96628.00;5095855;28;20099;-63
2021/11/01 00:51:37;;;;;;;25.83;13.80;;;;;;;10.23;80.96;96629.69;5095850;28;20427;-65
2021/11/01 00:54:03;;;;;;;;;;;;;;;10.23;80.91;96627.94;5096374;28;20099;-65
2021/11/01 00:56:28;;;;;;;20.95;12.70;;;;;;;10.16;80.96;96621.22;5094638;28;19912;-63
2021/11/01 00:58:54;;;;;;;18.00;12.93;;;;;;;10.15;80.98;96616.03;5094543;28;20054;-61
2021/11/01 01:01:20;;;;;;;21.17;14.10;;;;;;;10.17;81.05;96619.47;5095769;28;20097;-63
2021/11/01 01:03:46;;;;;;;21.50;14.00;;;;;;;10.17;81.23;96614.25;5095675;28;20428;-64
2021/11/01 01:06:12;;;;;;;18.52;13.25;;;;;;;10.18;81.09;96614.16;5095618;28;20110;-63
2021/11/01 01:08:38;;;;;;;20.33;13.88;;;;;;;10.21;81.18;96618.44;5095561;28;20016;-62
2021/11/01 01:11:04;;;;;;;19.70;13.23;;;;;;;10.21;81.22;96610.59;5095421;28;20143;-66
2021/11/01 01:13:36;;;;;;;19.90;13.85;;;;;;;10.20;81.20;96612.34;5095372;28;20510;-60
2021/11/01 01:16:12;;;;;;;26.23;14.68;;;;;;;10.10;81.63;96609.22;5095407;28;20037;-66
2021/11/01 01:18:39;;;;;;;21.27;13.75;;;;;;;10.12;82.08;96614.41;5095389;28;20036;-63
2021/11/01 01:23:50;;;;;;;21.27;14.18;;;;;;;10.14;81.89;96607.34;5095447;28;20031;-63
2021/11/01 01:26:16;;;;;;;20.23;14.75;;;;;;;10.16;81.75;96604.66;5095159;28;20028;-62
2021/11/01 01:28:43;;;;;;;22.55;15.00;;;;;;;10.15;81.73;96605.59;5095121;28;20035;-63
2021/11/01 01:31:10;;;;;;;27.08;15.00;;;;;;;10.19;81.71;96597.59;5095177;28;20024;-63
2021/11/01 01:33:37;;;;;;;21.08;15.73;;;;;;;10.22;81.42;96597.47;5095063;28;20032;-62
2021/11/01 01:36:04;;;;;;;21.63;14.63;;;;;;;10.24;81.33;96594.81;5094853;28;20039;-62
2021/11/01 01:38:29;;;;;;;22.42;15.38;;;;;;;10.21;81.52;96590.53;5094978;28;20032;-63
2021/11/01 01:40:55;;;;;;;20.77;15.57;;;;;;;10.23;81.37;96591.34;5094838;28;20367;-61
2021/11/01 01:43:21;;;;;;;24.20;15.27;;;;;;;10.23;81.03;96593.94;5094774;28;20016;-63
2021/11/01 01:45:47;;;;;;;22.65;14.93;;;;;;;10.19;81.04;96594.09;5094898;28;20020;-64
2021/11/01 01:48:13;;;;;;;24.48;15.35;;;;;;;10.09;81.42;96596.22;5094670;28;20024;-61
2021/11/01 01:50:40;;;;;;;27.33;15.77;;;;;;;10.07;81.90;96590.16;5094691;28;20074;-64
2021/11/01 01:53:06;;;;;;;25.00;16.52;;;;;;;10.05;82.06;96595.44;5094639;28;20024;-67
2021/11/01 01:55:33;;;;;;;27.98;16.85;;;;;;;10.07;81.97;96591.03;5094475;28;20099;-64
2021/11/01 01:57:59;;;;;;;30.90;17.65;;;;;;;10.09;82.01;96594.44;5094437;28;20044;-63
2021/11/01 02:02:54;;;;;;;28.05;16.67;;;;;;;10.16;81.98;96581.16;5094425;28;20020;-63
2021/11/01 02:05:20;;;;;;;22.88;16.52;;;;;;;10.18;81.72;96584.56;5094454;28;20470;-65
2021/11/01 02:07:56;;;;;;;27.75;15.75;;;;;;;10.21;81.76;96581.84;5094326;28;20035;-65
2021/11/01 02:10:34;;;;;;;21.95;15.02;;;;;;;10.22;81.76;96580.94;5094101;28;20073;-62
2021/11/01 02:13:08;;;;;;;28.20;17.00;;;;;;;10.20;81.60;96573.16;5094236;28;20055;-66
2021/11/01 02:15:39;;;;;;;26.65;17.73;;;;;;;10.16;81.72;96562.84;5094183;28;20024;-62
2021/11/01 02:18:07;;;;;;;23.77;17.30;;;;;;;10.19;81.73;96571.44;5094311;28;20059;-65
2021/11/01 02:20:35;;;;;;;27.35;17.77;;;;;;;10.19;81.76;96571.44;5094277;28;20056;-64
2021/11/01 02:23:15;;;;;;;28.95;17.27;;;;;;;10.20;81.77;96574.91;5094139;28;20104;-67
2021/11/01 02:25:46;;;;;;;21.67;15.67;;;;;;;10.23;81.75;96569.56;5094059;28;20074;-63
2021/11/01 02:28:18;;;;;;;21.67;15.85;;;;;;;10.25;81.88;96567.75;5093954;28;20024;-65
2021/11/01 02:30:45;;;;;;;25.83;15.55;;;;;;;10.28;82.01;96566.78;5093943;28;20039;-65
2021/11/01 02:33:13;;;;;;;27.58;15.50;;;;;;;10.31;81.88;96562.31;5093883;28;20061;-67
2021/11/01 02:35:39;;;;;;;21.92;15.02;;;;;;;10.34;81.72;96571.78;5093869;28;20427;-63
2021/11/01 02:38:06;;;;;;;29.77;16.83;;;;;;;10.34;81.66;96575.28;5093984;28;20020;-66
2021/11/01 02:40:34;;;;;;;26.48;14.38;;;;;;;10.35;81.62;96573.50;5093814;28;20485;-63
2021/11/01 02:43:00;;;;;;;25.02;15.38;;;;;;;10.37;81.63;96571.69;5093724;28;20074;-64
2021/11/01 02:45:27;;;;;;;22.75;15.10;;;;;;;10.36;81.60;96564.75;5093704;28;20043;-61
2021/11/01 02:47:53;;;;;;;23.45;15.13;;;;;;;10.38;81.56;96572.53;5093591;28;20516;-65
2021/11/01 02:50:21;;;;;;;28.65;14.82;;;;;;;10.39;81.42;96566.41;5093550;28;20107;-66
2021/11/01 02:52:47;;;;;;;22.73;15.85;;;;;;;10.36;81.53;96564.75;5093637;28;20035;-62
2021/11/01 02:55:15;;;;;;;21.65;14.60;;;;;;;10.41;81.28;96564.59;5093529;28;20012;-61
2021/11/01 02:57:44;;;;;;;27.63;15.15;;;;;;;10.43;81.34;96566.22;5093596;28;20081;-65
2021/11/01 03:00:13;;;;;;;22.88;14.57;;;;;;;10.43;81.23;96570.59;5093162;28;20406;-63
2021/11/01 03:02:39;;;;;;;24.40;14.73;;;;;;;10.43;81.27;96571.47;5093466;28;20458;-66
2021/11/01 03:05:09;;;;;;;27.55;14.85;;;;;;;10.46;81.24;96570.53;5093411;28;20020;-66
2021/11/01 03:07:35;;;;;;;23.10;14.25;;;;;;;10.45;81.12;96560.94;5093266;28;20569;-60
2021/11/01 03:10:03;;;;;;;22.92;15.10;;;;;;;10.45;81.18;96563.56;5093255;28;20390;-66
2021/11/01 03:12:30;;;;;;;25.92;15.40;;;;;;;10.44;81.00;96564.44;5093405;28;20031;-63
2021/11/01 03:14:59;;;;;;;27.02;15.70;;;;;;;10.43;81.04;96571.47;5093300;28;20108;-62
2021/11/01 03:17:27;;;;;;;24.90;15.65;;;;;;;10.44;80.99;96565.31;5093477;28;20094;-62
2021/11/01 03:20:04;;;;;;;21.20;14.90;;;;;;;10.44;81.04;96564.44;5093206;28;20067;-64
2021/11/01 03:22:37;;;;;;;30.90;16.77;;;;;;;10.40;80.95;96555.88;5092662;28;20090;-61
2021/11/01 03:25:10;;;;;;;27.83;16.98;;;;;;;10.38;81.16;96555.06;5093234;28;20047;-65
2021/11/01 03:27:38;;;;;;;31.60;17.02;;;;;;;10.33;81.34;96547.41;5091829;28;20401;-66
2021/11/01 03:30:05;;;;;;;29.02;17.98;;;;;;;10.36;81.51;96541.22;5093135;28;20141;-61
2021/11/01 03:32:32;;;;;;;28.30;16.60;;;;;;;10.38;81.45;96544.63;5093121;28;20035;-63
2021/11/01 03:35:00;;;;;;;36.00;18.58;;;;;;;10.39;81.40;96546.34;5093272;28;20020;-62
2021/11/01 03:37:27;;;;;;;35.45;17.92;;;;;;;10.39;81.21;96545.47;5093106;28;20464;-64
2021/11/01 03:39:53;;;;;;;30.52;17.70;;;;;;;10.36;81.18;96542.06;5093066;28;20089;-65
2021/11/01 03:42:21;;;;;;;35.05;18.60;;;;;;;10.30;81.51;96536.22;5092989;28;20024;-67
2021/11/01 03:44:51;;;;;;;31.58;17.40;;;;;;;10.33;81.58;96533.50;5093053;28;20028;-66
2021/11/01 03:47:18;;;;;;;38.55;19.25;;;;;;;10.38;81.61;96534.16;5093040;28;20031;-62
2021/11/01 03:49:56;;;;;;;37.88;18.48;;;;;;;10.38;81.60;96521.09;5092931;28;20054;-61
2021/11/01 03:52:24;;;;;;;37.15;18.88;;;;;;;10.39;81.62;96525.41;5092861;28;20034;-64
2021/11/01 03:54:51;;;;;;;39.83;20.02;;;;;;;10.39;81.53;96520.19;5092966;28;20020;-64
2021/11/01 03:57:19;;;;;;;100.55;20.88;;;;;;;10.34;81.48;96517.75;5092957;28;20470;-62
2021/11/01 03:59:46;;;;;;;118.97;21.70;;;;;;;10.35;81.57;96514.22;5092760;28;20044;-61
2021/11/01 04:02:14;;;;;;;103.43;22.70;;;;;;;10.29;81.71;96505.75;5092724;28;20378;-62
2021/11/01 04:04:48;;;;;;;157.15;22.40;;;;;;;10.24;81.92;96511.16;5092732;28;20024;-64
2021/11/01 04:07:15;;;;;;;71.10;20.08;;;;;;;10.17;82.19;96499.22;5092752;28;20020;-64
2021/11/01 04:09:42;;;;;;;54.08;19.95;;;;;;;10.10;82.88;96504.69;5092913;28;20024;-62
2021/11/01 04:12:09;;;;;;;66.85;21.42;;;;;;;10.12;82.93;96496.78;5091596;28;20028;-65
2021/11/01 04:14:40;;;;;;;52.28;21.10;;;;;;;10.13;82.75;96493.25;5092715;28;20549;-63
2021/11/01 04:17:11;;;;;;;64.75;20.95;;;;;;;10.16;83.01;96493.13;5092757;28;20036;-62
2021/11/01 04:19:48;;;;;;;54.90;20.55;;;;;;;10.19;82.91;96490.41;5092752;28;20032;-64
2021/11/01 04:22:14;;;;;;;72.95;21.27;;;;;;;10.22;82.87;96489.44;5092959;28;20158;-66
2021/11/01 04:24:40;;;;;;;47.58;20.63;;;;;;;10.24;82.84;96490.25;5092703;28;20043;-65
2021/11/01 04:27:06;;;;;;;53.70;20.65;;;;;;;10.26;82.88;96492.81;5092495;28;20020;-65
2021/11/01 04:29:33;;;;;;;75.55;21.48;;;;;;;10.25;82.82;96486.72;5092606;28;20145;-62
2021/11/01 04:32:12;;;;;;;62.47;19.98;;;;;;;10.24;82.85;96488.47;5092564;28;20027;-64
2021/11/01 04:34:41;;;;;;;68.97;20.75;;;;;;;10.27;82.79;96484.91;5096296;28;20374;-62
2021/11/01 04:37:06;;;;;;;73.75;22.33;;;;;;;10.31;82.72;96490.84;5096152;28;20055;-64
2021/11/01 04:53:08;;;;;;;47.83;20.45;;;;;;;10.33;82.39;96487.25;5096138;28;20046;-62
2021/11/01 04:55:34;;;;;;;50.70;23.08;;;;;;;10.24;82.39;96474.56;5096043;28;20073;-65
2021/11/01 04:58:02;;;;;;;39.88;20.55;;;;;;;10.24;82.23;96477.16;5095760;28;20020;-62
2021/11/01 05:00:27;;;;;;;48.88;22.42;;;;;;;10.23;82.34;96481.53;5095285;28;20095;-61
2021/11/01 05:03:02;;;;;;;38.05;20.40;;;;;;;10.13;82.35;96487.16;5095598;28;20074;-64
2021/11/01 05:05:27;;;;;;;39.92;20.17;;;;;;;10.07;82.24;96477.78;5095658;28;20389;-62
2021/11/01 05:07:54;;;;;;;48.33;21.33;;;;;;;10.02;82.59;96483.19;5095501;28;20026;-63
2021/11/01 05:12:58;;;;;;;43.90;21.08;;;;;;;10.01;82.67;96478.00;5095548;28;20107;-63
2021/11/01 05:25:40;;;;;;;51.08;24.50;;;;;;;10.15;82.99;96491.44;5095363;28;20401;-63
2021/11/01 05:28:51;;;;;;;49.50;23.40;;;;;;;10.20;82.85;96489.50;5095147;28;20039;-65
2021/11/01 05:30:58;;;;;;;47.15;21.55;;;;;;;10.27;82.79;96491.88;5092114;28;20044;-63
2021/11/01 05:35:59;;;;;;;42.13;21.88;;;;;;;10.32;82.51;96496.03;5095231;28;20032;-66
2021/11/01 05:38:25;;;;;;;52.03;23.73;;;;;;;10.36;82.60;96496.78;5094904;28;20070;-61
2021/11/01 05:40:50;;;;;;;44.45;21.80;;;;;;;10.39;82.48;96495.78;5094942;28;20486;-64
2021/11/01 05:43:16;;;;;;;44.35;22.50;;;;;;;10.42;82.17;96501.75;5094832;28;20058;-62
2021/11/01 05:45:42;;;;;;;45.00;21.73;;;;;;;10.44;82.14;96502.53;5094356;28;20050;-61
2021/11/01 05:48:08;;;;;;;39.00;21.40;;;;;;;10.46;81.84;96505.13;5094751;28;20130;-64
2021/11/01 05:50:36;;;;;;;40.50;21.77;;;;;;;10.46;81.96;96498.16;5094622;28;20035;-64
2021/11/01 05:53:06;;;;;;;34.38;20.98;;;;;;;10.48;81.25;96504.16;5094659;28;20043;-65
2021/11/01 06:03:28;;;;;;;42.08;23.52;;;;;;;10.53;82.17;96509.22;5094373;28;20028;-61
2021/11/01 06:08:46;;;;;;;53.00;26.35;;;;;;;10.53;82.35;96517.06;5094594;28;20473;-60
2021/11/01 06:13:58;;;;;;;57.20;26.77;;;;;;;10.58;82.38;96512.53;5094760;28;20043;-62
2021/11/01 06:16:24;;;;;;;56.78;26.88;;;;;;;10.62;82.29;96513.25;5094165;28;20036;-61
2021/11/01 06:18:52;;;;;;;52.50;25.63;;;;;;;10.66;82.25;96514.84;5094157;28;20102;-64
2021/11/01 06:21:19;;;;;;;56.22;25.98;;;;;;;10.69;82.42;96513.88;5094104;28;20485;-65
2021/11/01 06:23:52;;;;;;;55.97;25.58;;;;;;;10.72;81.97;96514.59;5094103;28;20043;-63
2021/11/01 06:26:19;;;;;;;53.00;25.05;;;;;;;10.76;81.99;96517.09;5094087;28;20039;-61
2021/11/01 06:28:48;;;;;;;54.17;26.27;;;;;;;10.76;81.88;96517.94;5094095;28;20481;-67
2021/11/01 06:31:20;;;;;;;51.10;26.38;;;;;;;10.82;81.45;96515.09;5094116;28;20028;-62
2021/11/01 06:33:58;;;;;;;43.38;23.48;;;;;;;10.84;81.08;96518.47;5094083;28;20055;-62
2021/11/01 06:39:25;;;;;;;46.78;25.17;;;;;;;10.92;80.50;96518.19;5094179;28;20043;-66
2021/11/01 06:42:09;;;;;;;44.58;24.02;;;;;;;10.90;80.53;96506.09;5093709;28;20032;-63
2021/11/01 06:44:49;;;;;;;40.97;20.60;;;;;;;10.91;80.19;96513.88;5093788;28;20390;-62
2021/11/01 06:58:24;;;;;;;30.13;18.92;;;;;;;11.03;79.76;96496.81;5093292;28;20024;-65
2021/11/01 07:14:48;;;;;;;31.85;19.55;;;;;;;11.27;79.23;96469.69;5093553;28;20480;-64
2021/11/01 07:17:34;;;;;;;23.25;16.67;;;;;;;11.19;78.73;96475.25;5093431;28;20031;-65
2021/11/01 07:20:27;;;;;;;24.77;16.55;;;;;;;11.23;78.48;96479.44;5093165;28;20028;-64
2021/11/01 08:28:23;;;;;;;;;;;;;;;11.78;76.84;96459.66;5096741;28;20028;-66
2021/11/01 08:51:58;;;;;;;21.38;13.85;;;;;;;12.42;76.22;96461.22;5095819;28;20402;-64
2021/11/01 09:02:45;;;;;;;23.33;16.20;;;;;;;12.35;74.14;96447.53;5096149;28;20475;-63
2021/11/01 09:05:37;;;;;;;23.25;16.30;;;;;;;12.32;74.59;96445.94;5095588;28;20389;-65
2021/11/01 09:13:18;;;;;;;24.35;16.63;;;;;;;12.55;74.52;96438.72;5095908;28;20039;-63
2021/11/01 09:42:23;;;;;;;19.42;14.68;;;;;;;13.40;71.11;96412.69;5095172;28;20116;-65
2021/11/01 09:44:51;;;;;;;17.23;14.48;;;;;;;13.34;69.85;96405.13;5094927;28;20044;-60
2021/11/01 09:47:17;;;;;;;21.50;13.82;;;;;;;13.38;69.46;96400.56;5094860;28;20066;-59
2021/11/01 09:49:43;;;;;;;21.25;14.48;;;;;;;13.53;69.05;96398.97;5094998;28;20393;-63
2021/11/01 09:52:09;;;;;;;19.40;15.20;;;;;;;13.71;68.50;96399.78;5094827;28;20027;-62
2021/11/01 09:54:37;;;;;;;18.95;15.50;;;;;;;13.84;68.20;96399.09;5094914;28;20024;-62
2021/11/01 09:57:20;;;;;;;19.65;15.23;;;;;;;13.93;69.15;96395.97;5094874;28;20035;-62
2021/11/01 09:59:46;;;;;;;19.50;15.55;;;;;;;13.94;69.32;96389.78;5094382;28;20059;-65
2021/11/01 10:02:16;;;;;;;20.10;15.25;;;;;;;14.02;69.16;96384.97;5094648;28;20485;-62
2021/11/01 10:04:44;;;;;;;18.08;15.18;;;;;;;14.11;67.23;96380.13;5094498;28;20023;-64
2021/11/01 10:07:25;;;;;;;17.38;15.30;;;;;;;14.13;65.58;96378.28;5094460;28;20020;-64
2021/11/01 10:10:11;;;;;;;18.42;15.50;;;;;;;14.13;67.09;96375.66;5094541;28;20028;-59
2021/11/01 10:12:39;;;;;;;20.95;17.00;;;;;;;14.09;68.33;96376.75;5094444;28;20031;-64
2021/11/01 10:18:12;;;;;;;20.83;15.38;;;;;;;14.15;67.38;96379.06;5094746;28;20071;-61
2021/11/01 10:21:04;;;;;;;21.23;16.10;;;;;;;14.23;67.23;96363.69;5094299;28;20016;-63
2021/11/01 10:23:33;;;;;;;19.55;14.45;;;;;;;14.20;66.01;96371.75;5092068;28;20458;-59
2021/11/01 10:26:11;;;;;;;18.38;14.25;;;;;;;14.23;64.62;96358.41;5094023;28;20050;-62
2021/11/01 10:28:38;;;;;;;19.25;14.57;;;;;;;14.32;64.66;96356.19;5094175;28;20039;-61
2021/11/01 10:31:07;;;;;;;22.08;16.35;;;;;;;14.34;65.71;96354.34;5093757;28;20497;-63
2021/11/01 10:33:35;;;;;;;18.65;15.10;;;;;;;14.35;65.51;96342.88;5093993;28;20040;-65
2021/11/01 10:36:00;;;;;;;16.48;13.65;;;;;;;14.32;64.58;96338.63;5093911;28;20452;-61
2021/11/01 11:11:41;;;;;;;19.60;14.57;;;;;;;13.96;66.97;96310.81;5093771;28;20054;-61
2021/11/01 11:24:54;;;;;;;18.70;14.88;;;;;;;14.18;65.48;96294.69;5093289;28;20574;-62
2021/11/01 11:27:44;;;;;;;16.50;13.77;;;;;;;14.48;65.15;96288.59;5093301;28;20046;-62
2021/11/01 11:39:21;;;;;;;14.00;12.20;;;;;;;15.06;61.07;96280.03;5093545;28;20043;-61
2021/11/01 11:50:47;;;;;;;18.67;15.20;;;;;;;14.43;64.73;96264.38;5097548;28;20035;-65
2021/11/01 11:53:17;;;;;;;15.63;13.32;;;;;;;14.35;64.22;96264.78;5097077;28;20020;-62
2021/11/01 11:55:47;;;;;;;17.35;14.20;;;;;;;14.40;64.89;96268.03;5097059;28;20502;-63
2021/11/01 11:58:14;;;;;;;15.90;13.20;;;;;;;14.30;63.52;96273.91;5096918;28;20027;-64
2021/11/01 12:00:42;;;;;;;16.27;12.70;;;;;;;14.13;62.82;96271.31;5096817;28;20054;-64
2021/11/01 12:03:14;;;;;;;17.50;13.45;;;;;;;14.13;63.21;96262.56;5096943;28;20026;-61
2021/11/01 12:05:54;;;;;;;18.65;13.55;;;;;;;14.12;63.91;96264.31;5096918;28;20020;-61
2021/11/01 12:11:33;;;;;;;16.70;13.30;;;;;;;14.13;63.72;96273.06;5091861;28;20390;-61
2021/11/01 12:14:18;;;;;;;19.35;13.15;;;;;;;14.12;63.61;96250.34;5096773;28;20028;-60
2021/11/01 12:19:48;;;;;;;18.05;13.93;;;;;;;14.27;63.40;96256.50;5084195;28;20040;-62
2021/11/01 12:22:36;;;;;;;19.17;14.80;;;;;;;14.17;64.26;96263.25;5096577;28;20098;-64
2021/11/01 12:25:07;;;;;;;20.88;14.48;;;;;;;14.09;65.16;96267.13;5096451;28;20020;-66
2021/11/01 12:27:36;;;;;;;17.98;13.80;;;;;;;14.00;65.91;96268.50;5096628;28;20032;-62
2021/11/01 12:30:09;;;;;;;19.90;15.50;;;;;;;13.86;66.49;96263.16;5096743;28;20055;-64
2021/11/01 12:32:54;;;;;;;19.45;15.95;;;;;;;13.83;67.20;96263.34;5073791;28;20045;-62
2021/11/01 12:35:25;;;;;;;20.27;15.93;;;;;;;13.83;66.98;96265.97;5073887;28;20048;-61
2021/11/01 12:38:09;;;;;;;21.83;15.18;;;;;;;13.87;65.34;96257.81;5073993;28;20494;-64
2021/11/01 12:48:56;;;;;;;22.48;15.20;;;;;;;13.77;65.40;96256.66;5073750;28;20021;-66
2021/11/01 12:57:09;;;;;;;24.70;17.27;;;;;;;13.90;65.47;96248.91;5073506;28;20571;-63
2021/11/01 12:59:45;;;;;;;25.30;16.90;;;;;;;13.99;65.66;96243.16;5073192;28;20491;-62
2021/11/01 13:02:18;;;;;;;22.17;17.58;;;;;;;14.02;65.49;96242.09;5073375;28;20086;-66
2021/11/01 13:04:51;;;;;;;27.88;18.75;;;;;;;13.88;66.30;96238.47;5073669;28;20151;-65
2021/11/01 13:10:28;;;;;;;26.60;18.58;;;;;;;13.85;66.51;96240.44;5073254;28;20060;-65
2021/11/01 13:19:11;;;;;;;23.13;17.80;;;;;;;13.58;66.84;96233.16;5095761;28;20071;-60
2021/11/01 13:24:25;;;;;;;24.88;17.65;;;;;;;13.46;67.48;96240.72;5095422;28;20497;-63
2021/11/01 13:27:29;;;;;;;25.47;17.87;;;;;;;13.51;67.33;96236.13;5095191;28;20040;-63
2021/11/01 13:37:57;;;;;;;25.27;18.35;;;;;;;13.52;67.59;96236.97;5095136;28;20091;-63
2021/11/01 13:40:22;;;;;;;26.17;18.73;;;;;;;13.50;68.62;96236.19;5095240;28;20377;-61
2021/11/01 13:42:57;;;;;;;24.35;19.52;;;;;;;13.51;68.24;96235.25;5095005;28;20020;-65
2021/11/01 13:45:23;;;;;;;24.00;17.52;;;;;;;13.54;67.89;96239.53;5094783;28;20090;-65
2021/11/01 13:47:54;;;;;;;30.75;19.02;;;;;;;13.54;67.90;96235.09;5094704;28;20078;-63
2021/11/01 13:50:25;;;;;;;30.23;19.70;;;;;;;13.51;68.18;96235.25;5094904;28;20085;-62
2021/11/01 13:53:01;;;;;;;23.30;17.90;;;;;;;13.50;67.52;96236.19;5094875;28;20107;-63
2021/11/01 14:11:57;;;;;;;23.17;17.42;;;;;;;13.01;69.61;96228.22;5085888;28;20497;-63
2021/11/01 15:21:08;;;;;;;29.83;23.15;;;;;;;11.66;72.21;96237.50;5093409;28;20028;-61
2021/11/01 15:37:14;;;;;;;27.58;19.23;;;;;;;10.79;74.69;96235.25;5093398;28;20031;-62
2021/11/01 16:18:01;;;;;;;29.05;20.05;;;;;;;9.50;75.47;96251.75;5092921;28;20024;-64
2021/11/01 16:20:31;;;;;;;26.80;18.52;;;;;;;9.48;75.23;96251.81;5092802;28;20024;-63
2021/11/01 16:26:14;;;;;;;22.23;17.08;;;;;;;9.45;74.77;96258.91;5070372;28;20056;-66
2021/11/01 16:28:41;;;;;;;24.17;17.75;;;;;;;9.37;75.12;96256.59;5071412;28;20036;-64
2021/11/01 16:33:42;;;;;;;25.85;19.92;;;;;;;9.31;75.67;96267.25;5096439;28;20047;-62
2021/11/01 16:36:17;;;;;;;28.73;21.60;;;;;;;9.29;75.81;96267.31;5096214;28;20028;-64
2021/11/01 16:38:51;;;;;;;21.75;17.23;;;;;;;9.29;75.94;96261.22;5096364;28;20366;-65
2021/11/01 16:41:19;;;;;;;21.83;16.85;;;;;;;9.23;75.52;96273.63;5096328;28;20440;-62
2021/11/01 16:43:45;;;;;;;25.27;18.38;;;;;;;9.21;75.60;96274.56;5096266;28;20085;-61
2021/11/01 16:46:11;;;;;;;25.27;19.13;;;;;;;9.20;75.82;96278.09;5096138;28;20424;-64
2021/11/01 16:48:38;;;;;;;28.02;19.90;;;;;;;9.14;75.94;96280.91;5095978;28;20034;-66
2021/11/01 16:51:05;;;;;;;26.00;18.15;;;;;;;9.08;75.98;96289.81;5096075;28;20517;-64
2021/11/01 16:53:32;;;;;;;29.08;19.55;;;;;;;8.99;76.33;96285.78;5096041;28;20049;-66
2021/11/01 16:56:13;;;;;;;25.80;18.67;;;;;;;8.98;76.76;96284.94;5096001;28;20381;-62
2021/11/01 16:58:44;;;;;;;31.15;18.33;;;;;;;8.98;76.54;96287.53;5095952;28;20043;-61
2021/11/01 17:01:15;;;;;;;26.63;18.35;;;;;;;8.88;77.12;96275.72;5095553;28;20127;-64
2021/11/01 17:03:51;;;;;;;26.23;19.13;;;;;;;8.95;77.13;96285.06;5095689;28;20515;-66
2021/11/01 17:09:24;;;;;;;30.10;21.17;;;;;;;8.81;79.18;96271.63;5096121;28;20462;-66
2021/11/01 17:23:10;;;;;;;27.77;19.70;;;;;;;8.80;80.24;96276.03;5095520;28;20039;-61
2021/11/01 18:45:56;;;;;;;20.27;14.90;;;;;;;9.15;81.26;96272.19;5094092;28;20024;-66
2021/11/01 18:51:36;;;;;;;17.63;13.95;;;;;;;9.04;81.14;96268.22;5093913;28;20141;-61
2021/11/01 18:54:03;;;;;;;19.88;15.23;;;;;;;9.04;82.32;96268.22;5093609;28;20114;-62
2021/11/01 18:56:37;;;;;;;20.80;15.50;;;;;;;9.09;82.69;96268.03;5093778;28;20499;-66
2021/11/01 18:59:06;;;;;;;17.52;14.40;;;;;;;9.09;82.44;96268.03;5093367;28;20032;-65
2021/11/01 19:01:36;;;;;;;19.48;15.45;;;;;;;9.12;82.09;96267.91;5093582;28;20024;-64
2021/11/01 19:04:14;;;;;;;22.55;15.70;;;;;;;9.13;81.90;96260.94;5093363;28;20024;-65
2021/11/01 19:06:49;;;;;;;21.33;15.95;;;;;;;9.12;83.09;96277.53;5093622;28;20032;-61
2021/11/01 20:04:26;;;;;;;17.75;13.63;;;;;;;10.08;83.01;96296.53;5094827;28;20256;-65
2021/11/01 20:12:50;;;;;;;14.82;12.57;;;;;;;10.18;82.68;96276.94;5096909;28;20027;-61
2021/11/01 21:26:05;;;;;;;15.15;10.63;;;;;;;10.68;82.33;96247.94;5072272;28;20118;-66
2021/11/01 21:28:31;;;;;;;15.70;12.15;;;;;;;10.71;82.29;96247.81;5095176;28;20390;-67
2021/11/01 21:30:59;;;;;;;13.43;11.00;;;;;;;10.76;82.08;96240.63;5095302;28;20119;-63
2021/11/01 21:33:30;;;;;;;14.40;11.05;;;;;;;10.77;81.91;96239.69;5095188;28;20472;-62
2021/11/01 21:36:03;;;;;;;17.73;11.90;;;;;;;10.78;81.76;96232.72;5095154;28;20028;-62
2021/11/01 21:38:30;;;;;;;14.40;11.30;;;;;;;10.79;81.83;96235.25;5095078;28;20032;-63
2021/11/01 21:40:55;;;;;;;16.70;12.75;;;;;;;10.81;81.77;96227.34;5094947;28;20023;-63
2021/11/01 21:43:22;;;;;;;16.17;12.93;;;;;;;10.83;81.61;96228.09;5094937;28;20024;-63
2021/11/01 21:45:49;;;;;;;24.05;15.98;;;;;;;10.82;81.66;96223.78;5094923;28;20393;-63
2021/11/01 21:48:15;;;;;;;24.90;16.30;;;;;;;10.82;82.16;96221.19;5094966;28;20024;-62
2021/11/01 21:50:45;;;;;;;25.27;18.20;;;;;;;10.84;81.98;96224.59;5094822;28;20480;-64
2021/11/01 21:53:12;;;;;;;16.75;12.93;;;;;;;10.84;81.59;96214.13;5094941;28;20505;-65
2021/11/01 21:55:39;;;;;;;14.70;11.65;;;;;;;10.80;81.53;96215.16;5094704;28;20031;-63
2021/11/01 21:58:20;;;;;;;11.75;10.25;;;;;;;10.81;81.08;96209.84;5094296;28;20024;-62
2021/11/01 22:01:05;;;;;;;13.68;10.40;;;;;;;10.80;80.79;96208.16;5094497;28;20379;-63
2021/11/01 22:19:57;;;;;;;22.48;15.45;;;;;;;10.66;80.57;96214.03;5093355;28;20028;-64
2021/11/01 22:33:28;;;;;;;22.02;16.58;;;;;;;10.57;80.86;96204.78;5094383;28;20035;-62
2021/11/01 22:47:07;;;;;;;18.88;16.45;;;;;;;10.55;80.92;96177.88;5085034;28;20182;-61
2021/11/01 22:57:57;;;;;;;20.52;16.35;;;;;;;10.59;80.64;96160.25;5093831;28;20119;-66
2021/11/01 23:00:43;;;;;;;20.33;15.05;;;;;;;10.60;80.50;96151.50;5093484;28;20433;-64
2021/11/01 23:03:15;;;;;;;18.83;15.10;;;;;;;10.60;80.04;96154.13;5093663;28;20469;-62
2021/11/01 23:06:00;;;;;;;19.80;15.65;;;;;;;10.55;80.27;96151.72;5093569;28;20020;-63
2021/11/01 23:33:05;;;;;;;20.90;15.93;;;;;;;10.46;81.59;96126.81;5093248;28;20520;-65
2021/11/01 23:35:31;;;;;;;23.65;16.27;;;;;;;10.45;81.86;96125.09;5093184;28;20020;-63
2021/11/01 23:37:56;;;;;;;25.75;17.75;;;;;;;10.48;81.94;96118.91;5093205;28;20065;-66
2021/11/01 23:40:22;;;;;;;25.77;15.70;;;;;;;10.49;81.81;96116.22;5097133;28;20016;-62
2021/11/01 23:42:48;;;;;;;21.80;15.63;;;;;;;10.50;81.72;96111.81;5097383;28;20036;-62
2021/11/01 23:45:13;;;;;;;20.02;15.52;;;;;;;10.52;81.93;96115.22;5097248;28;20497;-62
2021/11/01 23:47:39;;;;;;;23.40;16.55;;;;;;;10.53;81.66;96110.84;5097108;28;20024;-63
2021/11/01 23:50:05;;;;;;;23.58;16.17;;;;;;;10.56;81.84;96106.31;5097221;28;20050;-64
2021/11/01 23:52:42;;;;;;;25.60;17.45;;;;;;;10.56;81.62;96103.72;5096995;28;20032;-61
2021/11/01 23:55:09;;;;;;;22.75;15.52;;;;;;;10.60;81.54;96094.78;5097069;28;20031;-62
2021/11/01 23:57:35;;;;;;;24.25;15.38;;;;;;;10.61;81.51;96101.75;5096984;28;20028;-62
